sensor_id;sensor_type;location;lat;lon;timestamp;pressure;altitude;pressure_sealevel;temperature;humidity
48862;BME280;34681;49.188;-0.374;2023-10-31T00:00:37;99716.19;;;12.24;72.70
48862;BME280;34681;49.188;-0.374;2023-10-31T00:03:03;99724.25;;;12.25;72.37
48862;BME280;34681;49.188;-0.374;2023-10-31T00:05:28;99731.78;;;12.23;72.42
48862;BME280;34681;49.188;-0.374;2023-10-31T00:07:53;99730.47;;;12.19;72.49
48862;BME280;34681;49.188;-0.374;2023-10-31T00:10:19;99733.22;;;12.19;72.59
48862;BME280;34681;49.188;-0.374;2023-10-31T00:12:44;99731.69;;;12.17;72.31
48862;BME280;34681;49.188;-0.374;2023-10-31T00:15:10;99731.50;;;12.18;72.30
48862;BME280;34681;49.188;-0.374;2023-10-31T00:17:35;99732.88;;;12.14;72.55
48862;BME280;34681;49.188;-0.374;2023-10-31T00:20:01;99733.06;;;12.13;72.63
48862;BME280;34681;49.188;-0.374;2023-10-31T00:22:26;99724.00;;;12.12;72.41
48862;BME280;34681;49.188;-0.374;2023-10-31T00:24:51;99726.41;;;12.07;72.39
48862;BME280;34681;49.188;-0.374;2023-10-31T00:27:17;99730.38;;;12.04;72.48
48862;BME280;34681;49.188;-0.374;2023-10-31T00:29:42;99739.50;;;11.97;72.62
48862;BME280;34681;49.188;-0.374;2023-10-31T00:32:08;99737.28;;;12.00;72.58
48862;BME280;34681;49.188;-0.374;2023-10-31T00:34:33;99743.75;;;11.99;72.75
48862;BME280;34681;49.188;-0.374;2023-10-31T00:36:58;99745.66;;;11.99;73.07
48862;BME280;34681;49.188;-0.374;2023-10-31T00:39:24;99742.06;;;11.98;72.63
48862;BME280;34681;49.188;-0.374;2023-10-31T00:41:49;99737.72;;;12.12;72.63
48862;BME280;34681;49.188;-0.374;2023-10-31T00:44:14;99729.66;;;12.11;72.56
48862;BME280;34681;49.188;-0.374;2023-10-31T00:46:40;99741.63;;;12.18;72.27
48862;BME280;34681;49.188;-0.374;2023-10-31T00:49:05;99744.41;;;12.09;72.59
48862;BME280;34681;49.188;-0.374;2023-10-31T00:51:31;99752.97;;;12.06;72.45
48862;BME280;34681;49.188;-0.374;2023-10-31T00:53:56;99742.19;;;12.05;72.70
48862;BME280;34681;49.188;-0.374;2023-10-31T00:56:22;99746.78;;;12.13;72.63
48862;BME280;34681;49.188;-0.374;2023-10-31T00:58:47;99745.41;;;12.17;72.65
48862;BME280;34681;49.188;-0.374;2023-10-31T01:01:14;99745.34;;;12.25;72.54
48862;BME280;34681;49.188;-0.374;2023-10-31T01:03:39;99742.41;;;12.26;72.61
48862;BME280;34681;49.188;-0.374;2023-10-31T01:06:05;99741.00;;;12.30;72.71
48862;BME280;34681;49.188;-0.374;2023-10-31T01:08:30;99736.19;;;12.32;72.66
48862;BME280;34681;49.188;-0.374;2023-10-31T01:10:56;99739.97;;;12.31;72.59
48862;BME280;34681;49.188;-0.374;2023-10-31T01:13:21;99745.22;;;12.41;72.64
48862;BME280;34681;49.188;-0.374;2023-10-31T01:15:46;99751.38;;;12.43;72.58
48862;BME280;34681;49.188;-0.374;2023-10-31T01:18:12;99747.78;;;12.43;72.59
48862;BME280;34681;49.188;-0.374;2023-10-31T01:20:37;99746.63;;;12.37;72.57
48862;BME280;34681;49.188;-0.374;2023-10-31T01:23:03;99757.06;;;12.42;72.60
48862;BME280;34681;49.188;-0.374;2023-10-31T01:25:29;99752.53;;;12.49;72.50
48862;BME280;34681;49.188;-0.374;2023-10-31T01:27:54;99751.66;;;12.48;72.53
48862;BME280;34681;49.188;-0.374;2023-10-31T01:30:19;99755.91;;;12.59;72.53
48862;BME280;34681;49.188;-0.374;2023-10-31T01:32:45;99754.84;;;12.60;72.27
48862;BME280;34681;49.188;-0.374;2023-10-31T01:35:10;99754.19;;;12.58;72.27
48862;BME280;34681;49.188;-0.374;2023-10-31T01:37:36;99753.31;;;12.57;72.24
48862;BME280;34681;49.188;-0.374;2023-10-31T01:40:01;99754.34;;;12.56;72.39
48862;BME280;34681;49.188;-0.374;2023-10-31T01:42:28;99751.63;;;12.56;72.46
48862;BME280;34681;49.188;-0.374;2023-10-31T01:44:53;99752.47;;;12.57;72.20
48862;BME280;34681;49.188;-0.374;2023-10-31T01:47:19;99753.31;;;12.57;72.43
48862;BME280;34681;49.188;-0.374;2023-10-31T01:49:44;99753.16;;;12.59;72.34
48862;BME280;34681;49.188;-0.374;2023-10-31T01:52:09;99751.31;;;12.51;72.66
48862;BME280;34681;49.188;-0.374;2023-10-31T01:54:35;99755.97;;;12.51;72.72
48862;BME280;34681;49.188;-0.374;2023-10-31T01:57:02;99763.09;;;12.60;72.60
48862;BME280;34681;49.188;-0.374;2023-10-31T01:59:28;99749.56;;;12.58;72.67
48862;BME280;34681;49.188;-0.374;2023-10-31T02:01:55;99757.88;;;12.65;72.54
48862;BME280;34681;49.188;-0.374;2023-10-31T02:04:21;99747.22;;;12.70;72.37
48862;BME280;34681;49.188;-0.374;2023-10-31T02:06:46;99750.09;;;12.77;72.32
48862;BME280;34681;49.188;-0.374;2023-10-31T02:09:12;99755.94;;;12.74;72.70
48862;BME280;34681;49.188;-0.374;2023-10-31T02:11:37;99762.75;;;12.78;72.57
48862;BME280;34681;49.188;-0.374;2023-10-31T02:14:03;99765.31;;;12.79;72.62
48862;BME280;34681;49.188;-0.374;2023-10-31T02:16:28;99758.59;;;12.82;72.50
48862;BME280;34681;49.188;-0.374;2023-10-31T02:18:54;99767.16;;;12.87;72.61
48862;BME280;34681;49.188;-0.374;2023-10-31T02:21:20;99762.50;;;12.87;72.63
48862;BME280;34681;49.188;-0.374;2023-10-31T02:23:59;99766.59;;;12.91;72.65
48862;BME280;34681;49.188;-0.374;2023-10-31T02:26:29;99771.13;;;12.84;72.69
48862;BME280;34681;49.188;-0.374;2023-10-31T02:28:55;99769.78;;;12.80;72.64
48862;BME280;34681;49.188;-0.374;2023-10-31T02:31:21;99769.41;;;12.83;72.81
48862;BME280;34681;49.188;-0.374;2023-10-31T02:33:46;99778.66;;;12.82;72.92
48862;BME280;34681;49.188;-0.374;2023-10-31T02:36:11;99771.31;;;12.83;73.13
48862;BME280;34681;49.188;-0.374;2023-10-31T02:38:37;99772.16;;;12.83;73.09
48862;BME280;34681;49.188;-0.374;2023-10-31T02:41:02;99767.59;;;12.76;73.24
48862;BME280;34681;49.188;-0.374;2023-10-31T02:43:27;99764.34;;;12.72;73.87
48862;BME280;34681;49.188;-0.374;2023-10-31T02:45:53;99768.44;;;12.76;73.71
48862;BME280;34681;49.188;-0.374;2023-10-31T02:48:18;99772.25;;;12.75;73.43
48862;BME280;34681;49.188;-0.374;2023-10-31T02:50:45;99767.69;;;12.82;73.63
48862;BME280;34681;49.188;-0.374;2023-10-31T02:53:11;99772.16;;;12.83;73.59
48862;BME280;34681;49.188;-0.374;2023-10-31T02:55:36;99773.03;;;12.84;73.74
48862;BME280;34681;49.188;-0.374;2023-10-31T02:58:01;99784.09;;;12.90;73.52
48862;BME280;34681;49.188;-0.374;2023-10-31T03:00:27;99772.31;;;12.82;73.46
48862;BME280;34681;49.188;-0.374;2023-10-31T03:02:52;99772.59;;;12.72;73.95
48862;BME280;34681;49.188;-0.374;2023-10-31T03:05:17;99772.31;;;12.67;73.88
48862;BME280;34681;49.188;-0.374;2023-10-31T03:07:43;99774.47;;;12.72;73.64
48862;BME280;34681;49.188;-0.374;2023-10-31T03:10:09;99775.13;;;12.74;73.67
48862;BME280;34681;49.188;-0.374;2023-10-31T03:12:34;99781.72;;;12.64;73.98
48862;BME280;34681;49.188;-0.374;2023-10-31T03:15:00;99780.03;;;12.63;74.06
48862;BME280;34681;49.188;-0.374;2023-10-31T03:17:25;99782.03;;;12.70;73.92
48862;BME280;34681;49.188;-0.374;2023-10-31T03:19:53;99786.69;;;12.69;73.87
48862;BME280;34681;49.188;-0.374;2023-10-31T03:22:18;99788.91;;;12.65;74.26
48862;BME280;34681;49.188;-0.374;2023-10-31T03:24:43;99783.75;;;12.71;74.27
48862;BME280;34681;49.188;-0.374;2023-10-31T03:27:09;99795.19;;;12.74;74.33
48862;BME280;34681;49.188;-0.374;2023-10-31T03:29:34;99797.03;;;12.82;74.10
48862;BME280;34681;49.188;-0.374;2023-10-31T03:31:59;99804.13;;;12.76;74.27
48862;BME280;34681;49.188;-0.374;2023-10-31T03:34:25;99812.16;;;12.78;74.44
48862;BME280;34681;49.188;-0.374;2023-10-31T03:36:50;99806.63;;;12.86;74.23
48862;BME280;34681;49.188;-0.374;2023-10-31T03:39:16;99811.38;;;12.92;74.22
48862;BME280;34681;49.188;-0.374;2023-10-31T03:41:41;99814.06;;;13.00;73.96
48862;BME280;34681;49.188;-0.374;2023-10-31T03:44:07;99816.88;;;12.92;74.17
48862;BME280;34681;49.188;-0.374;2023-10-31T03:46:33;99812.69;;;12.96;74.20
48862;BME280;34681;49.188;-0.374;2023-10-31T03:48:58;99813.56;;;12.97;74.22
48862;BME280;34681;49.188;-0.374;2023-10-31T03:51:23;99817.66;;;13.01;74.10
48862;BME280;34681;49.188;-0.374;2023-10-31T03:53:49;99819.81;;;13.05;74.00
48862;BME280;34681;49.188;-0.374;2023-10-31T03:56:14;99818.31;;;13.03;74.16
48862;BME280;34681;49.188;-0.374;2023-10-31T03:58:42;99822.38;;;12.92;74.41
48862;BME280;34681;49.188;-0.374;2023-10-31T04:01:07;99826.81;;;12.93;74.58
48862;BME280;34681;49.188;-0.374;2023-10-31T04:03:32;99824.91;;;12.93;74.55
48862;BME280;34681;49.188;-0.374;2023-10-31T04:05:58;99834.59;;;13.04;74.41
48862;BME280;34681;49.188;-0.374;2023-10-31T04:08:23;99839.44;;;13.02;74.62
48862;BME280;34681;49.188;-0.374;2023-10-31T04:10:49;99830.63;;;13.07;74.58
48862;BME280;34681;49.188;-0.374;2023-10-31T04:13:14;99829.09;;;13.04;74.44
48862;BME280;34681;49.188;-0.374;2023-10-31T04:15:39;99845.19;;;13.07;74.58
48862;BME280;34681;49.188;-0.374;2023-10-31T04:18:05;99843.63;;;13.13;74.36
48862;BME280;34681;49.188;-0.374;2023-10-31T04:20:30;99849.97;;;13.13;74.35
48862;BME280;34681;49.188;-0.374;2023-10-31T04:22:55;99855.00;;;13.10;74.60
48862;BME280;34681;49.188;-0.374;2023-10-31T04:25:21;99855.47;;;13.13;74.56
48862;BME280;34681;49.188;-0.374;2023-10-31T04:27:46;99866.75;;;13.18;74.29
48862;BME280;34681;49.188;-0.374;2023-10-31T04:30:12;99861.25;;;13.18;74.13
48862;BME280;34681;49.188;-0.374;2023-10-31T04:32:37;99859.56;;;13.17;74.28
48862;BME280;34681;49.188;-0.374;2023-10-31T04:35:02;99863.66;;;13.21;74.25
48862;BME280;34681;49.188;-0.374;2023-10-31T04:37:28;99868.31;;;13.21;74.47
48862;BME280;34681;49.188;-0.374;2023-10-31T04:39:53;99868.50;;;13.19;74.33
48862;BME280;34681;49.188;-0.374;2023-10-31T04:42:19;99866.59;;;13.20;74.37
48862;BME280;34681;49.188;-0.374;2023-10-31T04:44:45;99873.63;;;13.14;74.63
48862;BME280;34681;49.188;-0.374;2023-10-31T04:47:11;99880.38;;;13.12;74.63
48862;BME280;34681;49.188;-0.374;2023-10-31T04:49:36;99879.31;;;13.13;74.63
48862;BME280;34681;49.188;-0.374;2023-10-31T04:52:02;99880.06;;;13.07;75.06
48862;BME280;34681;49.188;-0.374;2023-10-31T04:54:27;99878.84;;;13.09;74.71
48862;BME280;34681;49.188;-0.374;2023-10-31T04:56:52;99884.53;;;13.08;75.05
48862;BME280;34681;49.188;-0.374;2023-10-31T04:59:18;99888.41;;;13.13;74.64
48862;BME280;34681;49.188;-0.374;2023-10-31T05:01:48;99888.38;;;13.21;74.62
48862;BME280;34681;49.188;-0.374;2023-10-31T05:04:14;99885.28;;;13.25;74.65
48862;BME280;34681;49.188;-0.374;2023-10-31T05:06:40;99890.09;;;13.23;74.63
48862;BME280;34681;49.188;-0.374;2023-10-31T05:09:05;99894.09;;;13.12;74.88
48862;BME280;34681;49.188;-0.374;2023-10-31T05:11:30;99894.56;;;13.15;75.02
48862;BME280;34681;49.188;-0.374;2023-10-31T05:13:56;99891.66;;;13.17;74.84
48862;BME280;34681;49.188;-0.374;2023-10-31T05:16:21;99891.78;;;13.24;74.51
48862;BME280;34681;49.188;-0.374;2023-10-31T05:18:46;99898.19;;;13.16;74.41
48862;BME280;34681;49.188;-0.374;2023-10-31T05:21:12;99899.59;;;13.12;74.55
48862;BME280;34681;49.188;-0.374;2023-10-31T05:23:37;99908.09;;;13.02;74.52
48862;BME280;34681;49.188;-0.374;2023-10-31T05:26:05;99911.34;;;12.98;74.69
48862;BME280;34681;49.188;-0.374;2023-10-31T05:28:31;99912.59;;;12.95;74.60
48862;BME280;34681;49.188;-0.374;2023-10-31T05:30:56;99910.88;;;12.94;74.55
48862;BME280;34681;49.188;-0.374;2023-10-31T05:33:21;99913.31;;;12.89;74.50
48862;BME280;34681;49.188;-0.374;2023-10-31T05:35:48;99911.66;;;12.80;74.48
48862;BME280;34681;49.188;-0.374;2023-10-31T05:38:13;99917.16;;;12.80;74.70
48862;BME280;34681;49.188;-0.374;2023-10-31T05:40:39;99913.53;;;12.79;74.53
48862;BME280;34681;49.188;-0.374;2023-10-31T05:43:04;99921.13;;;12.77;74.58
48862;BME280;34681;49.188;-0.374;2023-10-31T05:45:30;99928.50;;;12.77;74.87
48862;BME280;34681;49.188;-0.374;2023-10-31T05:47:56;99930.88;;;12.80;75.08
48862;BME280;34681;49.188;-0.374;2023-10-31T05:50:21;99936.88;;;12.83;75.10
48862;BME280;34681;49.188;-0.374;2023-10-31T05:52:47;99937.72;;;12.84;75.14
48862;BME280;34681;49.188;-0.374;2023-10-31T05:55:13;99935.69;;;12.78;75.44
48862;BME280;34681;49.188;-0.374;2023-10-31T05:57:38;99938.19;;;12.87;75.48
48862;BME280;34681;49.188;-0.374;2023-10-31T06:00:05;99943.22;;;12.84;75.52
48862;BME280;34681;49.188;-0.374;2023-10-31T06:02:30;99940.28;;;12.85;75.60
48862;BME280;34681;49.188;-0.374;2023-10-31T06:04:56;99941.81;;;12.88;75.54
48862;BME280;34681;49.188;-0.374;2023-10-31T06:07:21;99956.88;;;12.92;75.18
48862;BME280;34681;49.188;-0.374;2023-10-31T06:09:46;99958.66;;;12.85;75.13
48862;BME280;34681;49.188;-0.374;2023-10-31T06:12:12;99952.13;;;12.86;74.97
48862;BME280;34681;49.188;-0.374;2023-10-31T06:14:37;99957.09;;;12.82;74.99
48862;BME280;34681;49.188;-0.374;2023-10-31T06:17:02;99962.09;;;12.79;75.00
48862;BME280;34681;49.188;-0.374;2023-10-31T06:19:29;99963.81;;;12.80;75.22
48862;BME280;34681;49.188;-0.374;2023-10-31T06:21:54;99971.91;;;12.73;75.15
48862;BME280;34681;49.188;-0.374;2023-10-31T06:24:20;99969.34;;;12.72;75.04
48862;BME280;34681;49.188;-0.374;2023-10-31T06:26:45;99974.88;;;12.63;75.09
48862;BME280;34681;49.188;-0.374;2023-10-31T06:29:10;99981.56;;;12.61;75.11
48862;BME280;34681;49.188;-0.374;2023-10-31T06:31:36;99978.50;;;12.56;75.21
48862;BME280;34681;49.188;-0.374;2023-10-31T06:34:01;99978.00;;;12.52;75.41
48862;BME280;34681;49.188;-0.374;2023-10-31T06:36:26;99982.09;;;12.56;75.23
48862;BME280;34681;49.188;-0.374;2023-10-31T06:38:52;99988.09;;;12.60;75.03
48862;BME280;34681;49.188;-0.374;2023-10-31T06:41:17;99990.66;;;12.61;74.87
48862;BME280;34681;49.188;-0.374;2023-10-31T06:43:43;99994.63;;;12.59;75.08
48862;BME280;34681;49.188;-0.374;2023-10-31T06:46:08;99994.25;;;12.62;75.36
48862;BME280;34681;49.188;-0.374;2023-10-31T06:48:34;99995.97;;;12.63;75.34
48862;BME280;34681;49.188;-0.374;2023-10-31T06:50:59;99996.78;;;12.72;75.08
48862;BME280;34681;49.188;-0.374;2023-10-31T06:53:25;99999.53;;;12.72;75.01
48862;BME280;34681;49.188;-0.374;2023-10-31T06:55:50;100003.50;;;12.69;75.31
48862;BME280;34681;49.188;-0.374;2023-10-31T06:58:15;100015.09;;;12.79;75.27
48862;BME280;34681;49.188;-0.374;2023-10-31T07:00:41;100021.78;;;12.85;75.33
48862;BME280;34681;49.188;-0.374;2023-10-31T07:03:09;100023.25;;;12.96;74.94
48862;BME280;34681;49.188;-0.374;2023-10-31T07:05:40;100026.34;;;13.01;74.98
48862;BME280;34681;49.188;-0.374;2023-10-31T07:08:05;100033.84;;;13.07;75.34
48862;BME280;34681;49.188;-0.374;2023-10-31T07:10:31;100036.53;;;13.15;74.99
48862;BME280;34681;49.188;-0.374;2023-10-31T07:12:56;100039.97;;;13.25;75.01
48862;BME280;34681;49.188;-0.374;2023-10-31T07:15:23;100038.75;;;13.28;74.83
48862;BME280;34681;49.188;-0.374;2023-10-31T07:17:49;100040.13;;;13.24;74.88
48862;BME280;34681;49.188;-0.374;2023-10-31T07:20:14;100044.59;;;13.25;74.64
48862;BME280;34681;49.188;-0.374;2023-10-31T07:22:39;100055.75;;;13.23;74.66
48862;BME280;34681;49.188;-0.374;2023-10-31T07:25:06;100049.53;;;13.29;74.67
48862;BME280;34681;49.188;-0.374;2023-10-31T07:27:32;100054.31;;;13.35;74.75
48862;BME280;34681;49.188;-0.374;2023-10-31T07:29:57;100062.81;;;13.48;74.44
48862;BME280;34681;49.188;-0.374;2023-10-31T07:32:22;100053.50;;;13.58;74.24
48862;BME280;34681;49.188;-0.374;2023-10-31T07:34:48;100063.34;;;13.90;73.65
48862;BME280;34681;49.188;-0.374;2023-10-31T07:37:13;100056.84;;;14.05;73.25
48862;BME280;34681;49.188;-0.374;2023-10-31T07:39:39;100071.13;;;14.09;73.23
48862;BME280;34681;49.188;-0.374;2023-10-31T07:42:04;100068.97;;;13.96;73.19
48862;BME280;34681;49.188;-0.374;2023-10-31T07:44:30;100081.47;;;13.84;73.73
48862;BME280;34681;49.188;-0.374;2023-10-31T07:46:55;100079.91;;;13.82;73.53
48862;BME280;34681;49.188;-0.374;2023-10-31T07:49:21;100081.59;;;13.91;73.49
48862;BME280;34681;49.188;-0.374;2023-10-31T07:51:47;100090.97;;;13.96;73.54
48862;BME280;34681;49.188;-0.374;2023-10-31T07:54:14;100091.94;;;14.26;73.29
48862;BME280;34681;49.188;-0.374;2023-10-31T07:56:39;100100.31;;;14.48;72.72
48862;BME280;34681;49.188;-0.374;2023-10-31T07:59:05;100097.22;;;14.51;72.65
48862;BME280;34681;49.188;-0.374;2023-10-31T08:01:33;100102.22;;;14.47;72.78
48862;BME280;34681;49.188;-0.374;2023-10-31T08:03:58;100104.25;;;14.68;72.67
48862;BME280;34681;49.188;-0.374;2023-10-31T08:06:24;100100.28;;;15.00;72.12
48862;BME280;34681;49.188;-0.374;2023-10-31T08:08:49;100107.81;;;15.42;71.61
48862;BME280;34681;49.188;-0.374;2023-10-31T08:11:15;100107.22;;;15.62;71.21
48862;BME280;34681;49.188;-0.374;2023-10-31T08:13:40;100113.22;;;15.51;71.35
48862;BME280;34681;49.188;-0.374;2023-10-31T08:16:06;100116.84;;;15.36;71.57
48862;BME280;34681;49.188;-0.374;2023-10-31T08:18:32;100114.97;;;15.22;71.79
48862;BME280;34681;49.188;-0.374;2023-10-31T08:20:57;100119.91;;;15.27;71.88
48862;BME280;34681;49.188;-0.374;2023-10-31T08:23:23;100121.41;;;15.29;71.95
48862;BME280;34681;49.188;-0.374;2023-10-31T08:25:48;100124.69;;;15.54;71.42
48862;BME280;34681;49.188;-0.374;2023-10-31T08:28:14;100131.47;;;15.66;71.69
48862;BME280;34681;49.188;-0.374;2023-10-31T08:30:39;100136.13;;;15.87;71.76
48862;BME280;34681;49.188;-0.374;2023-10-31T08:33:05;100134.50;;;15.93;71.75
48862;BME280;34681;49.188;-0.374;2023-10-31T08:35:31;100130.28;;;15.97;71.63
48862;BME280;34681;49.188;-0.374;2023-10-31T08:37:56;100147.97;;;16.02;71.94
48862;BME280;34681;49.188;-0.374;2023-10-31T08:40:22;100140.50;;;16.18;71.78
48862;BME280;34681;49.188;-0.374;2023-10-31T08:42:48;100155.28;;;16.32;71.73
48862;BME280;34681;49.188;-0.374;2023-10-31T08:45:13;100148.84;;;16.24;71.63
48862;BME280;34681;49.188;-0.374;2023-10-31T08:47:38;100154.13;;;16.05;71.95
48862;BME280;34681;49.188;-0.374;2023-10-31T08:50:04;100154.34;;;16.03;72.18
48862;BME280;34681;49.188;-0.374;2023-10-31T08:52:30;100151.72;;;16.16;71.94
48862;BME280;34681;49.188;-0.374;2023-10-31T08:54:55;100153.44;;;16.17;72.14
48862;BME280;34681;49.188;-0.374;2023-10-31T08:57:22;100159.47;;;16.27;72.22
48862;BME280;34681;49.188;-0.374;2023-10-31T08:59:47;100152.81;;;16.43;71.82
48862;BME280;34681;49.188;-0.374;2023-10-31T09:02:12;100163.91;;;16.22;72.26
48862;BME280;34681;49.188;-0.374;2023-10-31T09:04:38;100162.22;;;16.27;72.14
48862;BME280;34681;49.188;-0.374;2023-10-31T09:07:03;100158.22;;;16.30;72.17
48862;BME280;34681;49.188;-0.374;2023-10-31T09:09:29;100162.66;;;16.52;71.84
48862;BME280;34681;49.188;-0.374;2023-10-31T09:11:54;100163.16;;;16.84;71.29
48862;BME280;34681;49.188;-0.374;2023-10-31T09:14:20;100167.97;;;17.03;70.73
48862;BME280;34681;49.188;-0.374;2023-10-31T09:16:45;100162.97;;;17.20;70.06
48862;BME280;34681;49.188;-0.374;2023-10-31T09:19:10;100168.38;;;17.00;70.65
48862;BME280;34681;49.188;-0.374;2023-10-31T09:21:36;100177.09;;;16.97;71.14
48862;BME280;34681;49.188;-0.374;2023-10-31T09:24:02;100176.56;;;16.87;71.48
48862;BME280;34681;49.188;-0.374;2023-10-31T09:26:27;100180.38;;;16.86;71.49
48862;BME280;34681;49.188;-0.374;2023-10-31T09:28:53;100174.38;;;16.76;71.46
48862;BME280;34681;49.188;-0.374;2023-10-31T09:31:18;100185.34;;;16.69;71.66
48862;BME280;34681;49.188;-0.374;2023-10-31T09:33:47;100190.94;;;16.76;71.63
48862;BME280;34681;49.188;-0.374;2023-10-31T09:36:13;100187.25;;;16.90;72.09
48862;BME280;34681;49.188;-0.374;2023-10-31T09:38:39;100199.28;;;17.10;71.81
48862;BME280;34681;49.188;-0.374;2023-10-31T09:41:05;100188.91;;;17.19;70.84
48862;BME280;34681;49.188;-0.374;2023-10-31T09:43:31;100198.03;;;17.13;71.01
48862;BME280;34681;49.188;-0.374;2023-10-31T09:45:57;100196.44;;;17.04;71.48
48862;BME280;34681;49.188;-0.374;2023-10-31T09:48:23;100191.88;;;17.18;71.13
48862;BME280;34681;49.188;-0.374;2023-10-31T09:50:51;100188.50;;;17.57;70.41
48862;BME280;34681;49.188;-0.374;2023-10-31T09:53:19;100208.53;;;18.13;68.76
48862;BME280;34681;49.188;-0.374;2023-10-31T09:55:46;100208.56;;;18.53;67.62
48862;BME280;34681;49.188;-0.374;2023-10-31T09:58:12;100210.13;;;18.75;66.99
48862;BME280;34681;49.188;-0.374;2023-10-31T10:00:37;100210.31;;;18.94;66.54
48862;BME280;34681;49.188;-0.374;2023-10-31T10:03:08;100212.03;;;18.95;66.20
48862;BME280;34681;49.188;-0.374;2023-10-31T10:05:36;100213.75;;;18.96;65.83
48862;BME280;34681;49.188;-0.374;2023-10-31T10:08:04;100216.72;;;19.07;66.08
48862;BME280;34681;49.188;-0.374;2023-10-31T10:10:29;100220.78;;;19.12;65.35
48862;BME280;34681;49.188;-0.374;2023-10-31T10:12:56;100214.56;;;19.23;65.03
48862;BME280;34681;49.188;-0.374;2023-10-31T10:15:23;100223.06;;;19.41;64.18
48862;BME280;34681;49.188;-0.374;2023-10-31T10:17:52;100230.31;;;19.35;64.77
48862;BME280;34681;49.188;-0.374;2023-10-31T10:20:18;100236.09;;;19.27;64.52
48862;BME280;34681;49.188;-0.374;2023-10-31T10:22:44;100236.97;;;19.21;64.67
48862;BME280;34681;49.188;-0.374;2023-10-31T10:25:18;100239.06;;;19.39;64.51
48862;BME280;34681;49.188;-0.374;2023-10-31T10:27:45;100242.72;;;19.33;64.47
48862;BME280;34681;49.188;-0.374;2023-10-31T10:30:12;100246.97;;;19.42;64.17
48862;BME280;34681;49.188;-0.374;2023-10-31T10:32:38;100255.69;;;19.66;63.51
48862;BME280;34681;49.188;-0.374;2023-10-31T10:35:04;100253.34;;;19.43;64.06
48862;BME280;34681;49.188;-0.374;2023-10-31T10:37:30;100253.59;;;19.34;63.79
48862;BME280;34681;49.188;-0.374;2023-10-31T10:39:56;100251.69;;;19.22;63.96
48862;BME280;34681;49.188;-0.374;2023-10-31T10:42:44;100257.47;;;19.07;64.24
48862;BME280;34681;49.188;-0.374;2023-10-31T10:45:12;100261.28;;;18.93;64.61
48862;BME280;34681;49.188;-0.374;2023-10-31T10:47:39;100255.13;;;19.04;64.45
48862;BME280;34681;49.188;-0.374;2023-10-31T10:50:05;100256.16;;;19.03;64.39
48862;BME280;34681;49.188;-0.374;2023-10-31T10:53:08;100260.44;;;19.05;64.07
48862;BME280;34681;49.188;-0.374;2023-10-31T10:55:39;100270.69;;;19.05;64.02
48862;BME280;34681;49.188;-0.374;2023-10-31T11:00:42;100264.50;;;18.96;63.55
48862;BME280;34681;49.188;-0.374;2023-10-31T11:03:09;100262.56;;;19.10;63.61
48862;BME280;34681;49.188;-0.374;2023-10-31T11:05:35;100261.28;;;19.32;63.07
48862;BME280;34681;49.188;-0.374;2023-10-31T11:08:02;100263.19;;;19.39;63.12
48862;BME280;34681;49.188;-0.374;2023-10-31T11:10:29;100276.84;;;19.33;62.82
48862;BME280;34681;49.188;-0.374;2023-10-31T11:12:55;100270.03;;;19.23;62.72
48862;BME280;34681;49.188;-0.374;2023-10-31T11:15:22;100260.84;;;19.02;63.39
48862;BME280;34681;49.188;-0.374;2023-10-31T11:17:49;100254.25;;;18.90;63.76
48862;BME280;34681;49.188;-0.374;2023-10-31T11:20:16;100254.06;;;18.98;63.27
48862;BME280;34681;49.188;-0.374;2023-10-31T11:22:45;100253.59;;;18.95;63.70
48862;BME280;34681;49.188;-0.374;2023-10-31T11:25:20;100257.03;;;19.10;63.43
48862;BME280;34681;49.188;-0.374;2023-10-31T11:27:50;100252.31;;;19.17;63.07
48862;BME280;34681;49.188;-0.374;2023-10-31T11:32:53;100259.78;;;19.36;62.76
48862;BME280;34681;49.188;-0.374;2023-10-31T11:35:19;100265.13;;;19.38;62.76
48862;BME280;34681;49.188;-0.374;2023-10-31T11:37:49;100255.91;;;19.44;62.74
48862;BME280;34681;49.188;-0.374;2023-10-31T11:40:25;100266.81;;;19.32;62.33
48862;BME280;34681;49.188;-0.374;2023-10-31T11:42:57;100265.97;;;19.32;62.64
48862;BME280;34681;49.188;-0.374;2023-10-31T11:45:27;100273.00;;;19.34;62.57
48862;BME280;34681;49.188;-0.374;2023-10-31T11:47:53;100277.28;;;19.30;62.37
48862;BME280;34681;49.188;-0.374;2023-10-31T11:50:19;100263.59;;;19.49;61.96
48862;BME280;34681;49.188;-0.374;2023-10-31T11:52:44;100272.56;;;19.71;61.13
48862;BME280;34681;49.188;-0.374;2023-10-31T11:55:13;100276.19;;;19.71;61.26
48862;BME280;34681;49.188;-0.374;2023-10-31T11:57:39;100275.94;;;19.86;60.70
48862;BME280;34681;49.188;-0.374;2023-10-31T12:00:05;100270.31;;;19.99;60.21
48862;BME280;34681;49.188;-0.374;2023-10-31T12:02:32;100273.53;;;20.41;59.58
48862;BME280;34681;49.188;-0.374;2023-10-31T12:05:11;100280.72;;;20.62;58.92
48862;BME280;34681;49.188;-0.374;2023-10-31T12:07:56;100272.66;;;20.47;58.95
48862;BME280;34681;49.188;-0.374;2023-10-31T12:10:26;100283.06;;;20.13;59.34
48862;BME280;34681;49.188;-0.374;2023-10-31T12:12:56;100287.81;;;20.00;60.13
48862;BME280;34681;49.188;-0.374;2023-10-31T12:15:22;100282.31;;;19.86;59.88
48862;BME280;34681;49.188;-0.374;2023-10-31T12:17:48;100285.72;;;19.95;59.34
48862;BME280;34681;49.188;-0.374;2023-10-31T12:20:14;100277.22;;;19.77;59.38
48862;BME280;34681;49.188;-0.374;2023-10-31T12:22:41;100283.66;;;19.64;59.48
48862;BME280;34681;49.188;-0.374;2023-10-31T12:25:08;100273.84;;;19.48;60.05
48862;BME280;34681;49.188;-0.374;2023-10-31T12:27:49;100260.81;;;19.42;60.54
48862;BME280;34681;49.188;-0.374;2023-10-31T12:30:16;100272.59;;;19.31;60.95
48862;BME280;34681;49.188;-0.374;2023-10-31T12:32:43;100277.06;;;19.25;60.61
48862;BME280;34681;49.188;-0.374;2023-10-31T12:35:19;100271.75;;;19.30;60.89
48862;BME280;34681;49.188;-0.374;2023-10-31T12:37:47;100270.03;;;19.29;60.93
48862;BME280;34681;49.188;-0.374;2023-10-31T12:40:15;100275.38;;;19.38;60.81
48862;BME280;34681;49.188;-0.374;2023-10-31T12:42:45;100270.88;;;19.23;60.90
48862;BME280;34681;49.188;-0.374;2023-10-31T12:45:12;100274.72;;;19.02;61.14